Terminal Aerodrome Forecast
Issued by NWS

Home | Current Version | Previous Version | Text Only | Print | Product List | Glossary On
Versions: 1 2 3 4 5 6 7 8 9 10 11 12 13 14
000
FTUS44 KTSA 302300
TAFFYV
TAF
KFYV 302320Z 3100/3124 00000KT P6SM SCT150
     FM310700 15002KT P6SM OVC120
     FM311600 15006KT P6SM OVC050 PROB30 3118/3124 -RA=

USA.gov is the U.S. government's official web portal to all federal, state and local government web resources and services.